Terminal Aerodrome Forecast
Issued by NWS Duluth, MN

Home | Current Version | Previous Version | Text Only | Print | Product List | Glossary On
Versions: 1 2 3 4 5 6 7 8 9 10 11 12 13 14 15 16 17 18 19
000
FTUS43 KDLH 290537
TAFINL
TAF
KINL 290537Z 2906/3006 22005KT P6SM VCTS FEW025 BKN040CB
      TEMPO 2906/2908 4SM TSRA SCT025 OVC030CB
     FM290800 21003KT P6SM SCT040
     FM291000 26002KT 6SM BR SKC
      TEMPO 2910/2913 3SM BR SCT008
     FM291400 19005KT P6SM SCT050
     FM300000 18006KT P6SM SKC=

USA.gov is the U.S. government's official web portal to all federal, state and local government web resources and services.